Time;durP1;ratioP1;P1;durP2;ratioP2;P2;SDS_P1;SDS_P2;PMS_P1;PMS_P2;Temp;Humidity;BMP_temperature;BMP_pressure;BME280_temperature;BME280_humidity;BME280_pressure;Samples;Min_cycle;Max_cycle;Signal;HPM_P1;HPM_P2
2021/12/07 00:01:19;;;;;;;15.55;6.53;;;;;;;;;;5053115;28;20481;-64
2021/12/07 00:03:48;;;;;;;13.02;6.57;;;;;;;;;;5066978;28;20131;-64
2021/12/07 00:06:16;;;;;;;17.15;6.55;;;;;;;;;;5068703;28;20084;-64
2021/12/07 00:08:45;;;;;;;13.25;5.15;;;;;;;;;;5068195;28;20082;-64
2021/12/07 00:11:14;;;;;;;14.15;5.22;;;;;;;;;;5068402;28;20411;-63
2021/12/07 00:13:43;;;;;;;15.70;6.05;;;;;;;;;;5064292;28;20059;-64
2021/12/07 00:16:13;;;;;;;14.90;6.65;;;;;;;;;;5055458;28;20051;-63
2021/12/07 00:18:42;;;;;;;17.13;7.13;;;;;;;;;;5062053;28;20125;-64
2021/12/07 00:21:10;;;;;;;16.40;6.70;;;;;;;;;;5056914;28;20177;-64
2021/12/07 00:23:39;;;;;;;13.02;6.25;;;;;;;;;;5063123;28;20147;-64
2021/12/07 00:26:16;;;;;;;13.13;5.60;;;;;;;;;;5055972;28;20080;-64
2021/12/07 00:28:45;;;;;;;14.43;6.10;;;;;;;;;;5052622;28;20155;-64
2021/12/07 00:31:21;;;;;;;14.52;5.65;;;;;;;;;;5072757;28;20144;-64
2021/12/07 00:34:06;;;;;;;13.20;5.97;;;;;;;;;;5069816;28;20079;-64
2021/12/07 00:36:34;;;;;;;11.93;5.22;;;;;;;;;;5071964;28;20080;-64
2021/12/07 00:39:03;;;;;;;13.05;5.95;;;;;;;;;;5065063;28;20136;-64
2021/12/07 00:41:33;;;;;;;13.43;5.88;;;;;;;;;;5054233;28;20106;-64
2021/12/07 00:44:02;;;;;;;13.45;6.45;;;;;;;;;;5063516;28;20051;-64
2021/12/07 00:46:31;;;;;;;12.52;5.88;;;;;;;;;;5063458;28;20052;-64
2021/12/07 00:49:00;;;;;;;12.68;5.55;;;;;;;;;;5068085;28;20152;-64
2021/12/07 00:51:28;;;;;;;14.73;5.80;;;;;;;;;;5075293;28;20131;-64
2021/12/07 00:53:56;;;;;;;10.63;5.47;;;;;;;;;;5059681;28;20045;-64
2021/12/07 00:56:24;;;;;;;13.38;6.75;;;;;;;;;;5066955;28;20048;-64
2021/12/07 00:58:54;;;;;;;14.85;6.53;;;;;;;;;;5071535;28;20048;-64
2021/12/07 01:01:23;;;;;;;17.70;6.22;;;;;;;;;;5059240;28;20050;-64
2021/12/07 01:03:52;;;;;;;14.38;5.93;;;;;;;;;;5061599;28;20044;-64
2021/12/07 01:06:26;;;;;;;12.57;6.10;;;;;;;;;;5066735;28;20054;-64
2021/12/07 01:09:10;;;;;;;15.83;7.00;;;;;;;;;;5070987;28;20048;-64
2021/12/07 01:25:36;;;;;;;13.60;5.90;;;;;;;;;;5052746;28;20048;-64
2021/12/07 01:28:06;;;;;;;11.48;5.43;;;;;;;;;;5053254;28;20053;-64
2021/12/07 01:30:42;;;;;;;11.90;5.07;;;;;;;;;;5069694;28;20055;-64
2021/12/07 01:33:28;;;;;;;12.68;5.50;;;;;;;;;;5055740;28;20053;-64
2021/12/07 01:36:10;;;;;;;13.32;5.28;;;;;;;;;;5062479;28;20048;-64
2021/12/07 01:39:34;;;;;;;9.65;4.70;;;;;;;;;;5065847;28;20041;-64
2021/12/07 01:42:49;;;;;;;13.02;5.43;;;;;;;;;;5068781;28;20575;-64
2021/12/07 01:44:48;;;;;;;11.80;4.82;;;;;;;;;;5068351;28;20055;-64
2021/12/07 01:50:38;;;;;;;10.05;4.80;;;;;;;;;;5028880;28;20052;-64
2021/12/07 01:53:18;;;;;;;10.73;4.50;;;;;;;;;;5062968;28;20040;-64
2021/12/07 02:01:21;;;;;;;10.38;4.43;;;;;;;;;;5068577;28;20132;-64
2021/12/07 02:03:50;;;;;;;8.90;4.43;;;;;;;;;;5067092;28;20071;-64
2021/12/07 02:06:19;;;;;;;10.75;4.75;;;;;;;;;;5057372;28;20133;-64
2021/12/07 02:08:47;;;;;;;10.70;4.75;;;;;;;;;;5059525;28;20122;-64
2021/12/07 02:11:15;;;;;;;7.85;3.72;;;;;;;;;;5062658;28;20135;-64
2021/12/07 02:16:31;;;;;;;8.85;4.10;;;;;;;;;;5070338;28;20068;-64
2021/12/07 02:19:00;;;;;;;8.13;4.65;;;;;;;;;;5067445;28;20044;-64
2021/12/07 02:21:30;;;;;;;9.40;4.75;;;;;;;;;;5056068;28;20611;-64
2021/12/07 02:23:58;;;;;;;11.70;4.25;;;;;;;;;;5060193;28;20114;-64
2021/12/07 02:26:27;;;;;;;8.18;4.32;;;;;;;;;;5066399;28;20127;-64
2021/12/07 02:28:57;;;;;;;7.82;3.90;;;;;;;;;;5062569;28;20049;-64
2021/12/07 02:31:25;;;;;;;4.95;3.78;;;;;;;;;;5056330;28;20143;-64
2021/12/07 02:33:54;;;;;;;8.00;3.08;;;;;;;;;;5061826;28;20078;-64
2021/12/07 02:36:23;;;;;;;5.43;2.83;;;;;;;;;;5063505;28;20135;-63
2021/12/07 02:38:53;;;;;;;5.85;2.80;;;;;;;;;;5063592;28;20040;-64
2021/12/07 02:41:21;;;;;;;5.90;3.03;;;;;;;;;;5061951;28;20486;-64
2021/12/07 02:43:50;;;;;;;5.20;2.47;;;;;;;;;;5069200;28;20050;-64
2021/12/07 02:46:18;;;;;;;5.07;2.20;;;;;;;;;;5070437;28;20052;-64
2021/12/07 02:48:46;;;;;;;3.65;2.00;;;;;;;;;;5057955;28;20051;-64
2021/12/07 02:51:14;;;;;;;3.63;2.03;;;;;;;;;;5067404;28;20496;-64
2021/12/07 02:53:43;;;;;;;3.42;1.50;;;;;;;;;;5054029;28;20075;-64
2021/12/07 02:56:12;;;;;;;4.53;1.75;;;;;;;;;;5061822;28;20511;-64
2021/12/07 02:58:43;;;;;;;4.45;2.08;;;;;;;;;;5063572;28;20080;-64
2021/12/07 03:01:16;;;;;;;2.00;1.50;;;;;;;;;;5061898;28;20377;-64
2021/12/07 03:03:56;;;;;;;3.33;1.80;;;;;;;;;;5057685;28;20134;-64
2021/12/07 03:06:33;;;;;;;2.25;1.27;;;;;;;;;;5062664;28;20403;-63
2021/12/07 03:26:01;;;;;;;2.65;1.52;;;;;;;;;;5054969;28;20163;-63
2021/12/07 03:28:30;;;;;;;3.70;1.42;;;;;;;;;;5060549;28;20047;-64
2021/12/07 03:30:59;;;;;;;1.77;1.25;;;;;;;;;;5057996;28;20486;-64
2021/12/07 03:33:28;;;;;;;4.03;1.33;;;;;;;;;;4982205;28;20059;-64
2021/12/07 03:35:57;;;;;;;2.33;1.50;;;;;;;;;;347525;28;10022771;-64
2021/12/07 03:38:25;;;;;;;2.03;1.40;;;;;;;;;;5065626;28;20048;-64
2021/12/07 03:40:53;;;;;;;3.45;1.58;;;;;;;;;;5067418;28;20042;-64
2021/12/07 03:43:22;;;;;;;4.28;1.70;;;;;;;;;;5051572;28;20151;-64
2021/12/07 03:45:52;;;;;;;4.50;1.75;;;;;;;;;;5068103;28;20343;-64
2021/12/07 03:48:20;;;;;;;4.22;1.67;;;;;;;;;;5067408;28;20075;-64
2021/12/07 03:50:48;;;;;;;2.88;1.75;;;;;;;;;;5060675;28;20100;-64
2021/12/07 03:53:18;;;;;;;2.92;1.80;;;;;;;;;;5066337;28;20143;-64
2021/12/07 03:55:46;;;;;;;2.25;1.67;;;;;;;;;;5069056;28;20059;-64
2021/12/07 03:58:15;;;;;;;5.00;1.60;;;;;;;;;;5061616;28;20131;-64
2021/12/07 04:00:45;;;;;;;2.50;1.58;;;;;;;;;;5052836;28;20044;-64
2021/12/07 04:03:16;;;;;;;3.40;1.60;;;;;;;;;;5054098;28;20053;-64
2021/12/07 04:05:48;;;;;;;1.95;1.33;;;;;;;;;;5068406;28;20388;-64
2021/12/07 04:08:18;;;;;;;3.42;1.60;;;;;;;;;;5071573;28;20248;-64
2021/12/07 04:10:47;;;;;;;2.47;1.65;;;;;;;;;;5059710;28;20132;-64
2021/12/07 04:13:15;;;;;;;2.83;1.35;;;;;;;;;;5064959;28;20399;-64
2021/12/07 04:15:43;;;;;;;2.85;1.70;;;;;;;;;;5072082;28;20052;-64
2021/12/07 04:18:12;;;;;;;2.35;1.40;;;;;;;;;;5074317;28;20479;-64
2021/12/07 04:20:41;;;;;;;1.83;1.10;;;;;;;;;;5068168;28;20514;-64
2021/12/07 04:23:10;;;;;;;3.10;1.50;;;;;;;;;;5054024;28;20093;-64
2021/12/07 04:25:38;;;;;;;2.17;1.45;;;;;;;;;;5070507;28;20051;-64
2021/12/07 04:28:07;;;;;;;2.13;1.10;;;;;;;;;;5072044;28;20076;-64
2021/12/07 04:30:36;;;;;;;3.10;1.20;;;;;;;;;;5067242;28;20041;-64
2021/12/07 04:33:05;;;;;;;2.33;1.08;;;;;;;;;;5057703;28;20062;-64
2021/12/07 04:35:33;;;;;;;5.82;1.50;;;;;;;;;;5059845;28;20148;-64
2021/12/07 04:38:03;;;;;;;1.48;1.10;;;;;;;;;;5068038;28;20040;-64
2021/12/07 04:40:32;;;;;;;1.55;1.05;;;;;;;;;;5071490;28;20055;-64
2021/12/07 04:43:02;;;;;;;1.60;1.20;;;;;;;;;;5073683;28;20464;-63
2021/12/07 04:45:37;;;;;;;2.05;1.10;;;;;;;;;;5054673;28;20088;-63
2021/12/07 04:48:31;;;;;;;1.83;1.00;;;;;;;;;;5073493;28;20082;-63
2021/12/07 04:59:20;;;;;;;2.25;1.17;;;;;;;;;;5065033;28;20074;-64
2021/12/07 05:01:48;;;;;;;3.17;1.00;;;;;;;;;;5061580;28;20052;-64
2021/12/07 05:04:21;;;;;;;1.13;0.88;;;;;;;;;;5065308;28;20124;-64
2021/12/07 05:06:53;;;;;;;1.45;1.00;;;;;;;;;;5058956;28;20087;-64
2021/12/07 05:09:41;;;;;;;2.55;1.20;;;;;;;;;;5070597;28;20510;-64
2021/12/07 05:15:10;;;;;;;2.60;1.23;;;;;;;;;;5058540;28;20049;-64
2021/12/07 05:34:31;;;;;;;2.13;1.05;;;;;;;;;;5073516;28;19967;-64
2021/12/07 05:34:45;;;;;;;4.25;0.80;;;;;;;;;;5047865;28;20066;-64
2021/12/07 05:40:03;;;;;;;2.25;0.80;;;;;;;;;;5048818;28;20351;-64
2021/12/07 05:42:33;;;;;;;1.10;1.00;;;;;;;;;;5064404;28;20072;-64
2021/12/07 05:45:01;;;;;;;3.67;1.20;;;;;;;;;;5072030;28;20049;-64
2021/12/07 05:47:30;;;;;;;5.18;1.05;;;;;;;;;;5078866;28;20183;-64
2021/12/07 05:49:58;;;;;;;1.23;0.73;;;;;;;;;;5079458;28;20042;-64
2021/12/07 05:52:26;;;;;;;0.95;0.80;;;;;;;;;;5085046;28;20109;-64
2021/12/07 05:54:55;;;;;;;2.50;1.20;;;;;;;;;;5072592;28;20064;-64
2021/12/07 05:57:23;;;;;;;4.72;0.90;;;;;;;;;;5064401;28;20047;-64
2021/12/07 05:59:53;;;;;;;2.15;0.90;;;;;;;;;;5069848;28;20040;-64
2021/12/07 06:02:21;;;;;;;1.65;1.05;;;;;;;;;;5068142;28;20130;-64
2021/12/07 06:04:49;;;;;;;2.75;1.08;;;;;;;;;;5064739;28;20057;-64
2021/12/07 06:07:18;;;;;;;1.98;1.05;;;;;;;;;;5070342;28;20122;-64
2021/12/07 06:09:46;;;;;;;1.35;0.93;;;;;;;;;;5059696;28;20059;-64
2021/12/07 06:12:14;;;;;;;6.65;0.80;;;;;;;;;;5058611;28;20076;-64
2021/12/07 06:14:44;;;;;;;1.15;0.77;;;;;;;;;;5068161;28;20132;-64
2021/12/07 06:17:14;;;;;;;1.20;1.00;;;;;;;;;;5063929;28;20113;-64
2021/12/07 06:19:42;;;;;;;1.73;0.80;;;;;;;;;;5057656;28;20060;-65
2021/12/07 06:22:11;;;;;;;1.75;1.00;;;;;;;;;;5055278;28;20052;-64
2021/12/07 06:24:39;;;;;;;2.75;0.90;;;;;;;;;;5062909;28;20650;-64
2021/12/07 06:27:08;;;;;;;2.13;0.98;;;;;;;;;;5057964;28;20146;-65
2021/12/07 06:29:36;;;;;;;2.50;0.68;;;;;;;;;;5060440;28;20052;-65
2021/12/07 06:32:05;;;;;;;2.75;1.30;;;;;;;;;;5049792;28;20076;-64
2021/12/07 06:34:35;;;;;;;1.58;1.10;;;;;;;;;;5056910;28;20052;-64
2021/12/07 06:37:04;;;;;;;3.20;1.23;;;;;;;;;;5063605;28;20047;-65
2021/12/07 06:39:33;;;;;;;2.85;1.00;;;;;;;;;;5063964;28;20052;-65
2021/12/07 06:42:02;;;;;;;1.60;1.05;;;;;;;;;;5056289;28;20044;-65
2021/12/07 06:44:30;;;;;;;2.00;1.23;;;;;;;;;;5059205;28;20173;-65
2021/12/07 06:46:58;;;;;;;6.68;1.40;;;;;;;;;;5064252;28;20071;-65
2021/12/07 06:49:27;;;;;;;3.30;1.15;;;;;;;;;;5062098;28;20499;-65
2021/12/07 06:51:57;;;;;;;1.40;0.90;;;;;;;;;;5062818;28;20624;-65
2021/12/07 06:54:25;;;;;;;2.78;1.30;;;;;;;;;;5063251;28;20245;-65
2021/12/07 06:56:54;;;;;;;2.03;1.40;;;;;;;;;;5065350;28;20337;-65
2021/12/07 06:59:23;;;;;;;2.00;1.05;;;;;;;;;;5064887;28;20058;-65
2021/12/07 07:01:51;;;;;;;2.60;1.27;;;;;;;;;;5060852;28;20044;-65
2021/12/07 07:04:20;;;;;;;1.90;1.30;;;;;;;;;;5059672;28;20135;-65
2021/12/07 07:06:50;;;;;;;2.85;1.80;;;;;;;;;;5066726;28;20048;-65
2021/12/07 07:09:20;;;;;;;2.35;1.30;;;;;;;;;;5052987;28;20536;-65
2021/12/07 07:11:48;;;;;;;3.38;1.50;;;;;;;;;;5058945;28;20421;-65
2021/12/07 07:14:17;;;;;;;2.92;1.20;;;;;;;;;;5057757;28;20144;-65
2021/12/07 07:16:45;;;;;;;2.45;1.50;;;;;;;;;;5054374;28;20123;-64
2021/12/07 07:19:13;;;;;;;3.95;1.55;;;;;;;;;;5060421;28;20053;-64
2021/12/07 07:21:41;;;;;;;1.63;1.33;;;;;;;;;;5054437;28;20053;-64
2021/12/07 07:24:10;;;;;;;1.40;1.25;;;;;;;;;;5060977;28;20589;-64
2021/12/07 07:26:40;;;;;;;2.25;1.40;;;;;;;;;;5060676;28;20084;-63
2021/12/07 07:29:08;;;;;;;5.35;1.50;;;;;;;;;;5057943;28;20059;-63
2021/12/07 07:31:40;;;;;;;3.78;1.33;;;;;;;;;;5060567;28;20389;-64
2021/12/07 07:34:08;;;;;;;2.90;1.27;;;;;;;;;;5062317;28;20047;-63
2021/12/07 07:36:37;;;;;;;2.33;1.35;;;;;;;;;;5061005;28;20146;-63
2021/12/07 07:39:05;;;;;;;3.15;1.60;;;;;;;;;;5061883;28;20115;-64
2021/12/07 07:41:33;;;;;;;5.78;1.60;;;;;;;;;;5066244;28;20048;-64
2021/12/07 07:44:05;;;;;;;1.77;1.17;;;;;;;;;;5063452;28;20574;-64
2021/12/07 07:46:33;;;;;;;3.33;1.60;;;;;;;;;;5065356;28;20054;-63
2021/12/07 07:49:02;;;;;;;4.47;1.45;;;;;;;;;;5062297;28;20067;-63
2021/12/07 07:51:31;;;;;;;2.70;1.50;;;;;;;;;;5069185;28;20630;-63
2021/12/07 07:54:00;;;;;;;6.47;1.83;;;;;;;;;;5069406;28;20051;-64
2021/12/07 07:56:29;;;;;;;3.38;1.58;;;;;;;;;;5068284;28;20135;-64
2021/12/07 07:58:58;;;;;;;6.57;1.52;;;;;;;;;;5064862;28;20157;-64
2021/12/07 08:01:30;;;;;;;3.47;1.10;;;;;;;;;;5059225;28;20044;-64
2021/12/07 08:04:00;;;;;;;4.03;1.40;;;;;;;;;;5066284;28;20048;-64
2021/12/07 08:06:29;;;;;;;2.65;1.20;;;;;;;;;;5060067;28;20089;-64
2021/12/07 08:08:57;;;;;;;2.08;1.48;;;;;;;;;;5066351;28;20052;-64
2021/12/07 08:11:26;;;;;;;3.53;1.63;;;;;;;;;;5068275;28;20419;-64
2021/12/07 08:13:55;;;;;;;6.85;1.50;;;;;;;;;;5066268;28;20140;-64
2021/12/07 08:22:05;;;;;;;6.50;2.07;;;;;;;;;;5067147;27;1359736;-64
2021/12/07 08:24:34;;;;;;;4.68;1.75;;;;;;;;;;5076677;28;20050;-63
2021/12/07 08:27:02;;;;;;;2.40;1.70;;;;;;;;;;5075240;28;20040;-64
2021/12/07 08:29:51;;;;;;;7.20;1.60;;;;;;;;;;5071233;28;20515;-64
2021/12/07 08:32:21;;;;;;;3.55;1.75;;;;;;;;;;5053311;28;20068;-64
2021/12/07 08:34:50;;;;;;;2.53;1.70;;;;;;;;;;5056918;28;20051;-63
2021/12/07 08:37:20;;;;;;;2.38;1.40;;;;;;;;;;5052263;28;20506;-65
2021/12/07 08:39:49;;;;;;;3.15;1.60;;;;;;;;;;5057385;28;20092;-64
2021/12/07 08:42:19;;;;;;;4.63;1.55;;;;;;;;;;5051709;28;20507;-64
2021/12/07 08:44:48;;;;;;;3.22;1.67;;;;;;;;;;5053806;28;20057;-64
2021/12/07 08:47:17;;;;;;;3.80;1.80;;;;;;;;;;5048508;28;20049;-64
2021/12/07 08:50:07;;;;;;;4.20;1.63;;;;;;;;;;5053293;28;20037;-65
2021/12/07 08:52:37;;;;;;;2.25;1.30;;;;;;;;;;5050701;28;20124;-64
2021/12/07 09:00:38;;;;;;;2.75;1.80;;;;;;;;;;5038404;28;20037;-65
2021/12/07 09:03:07;;;;;;;1.75;1.30;;;;;;;;;;5025318;28;20489;-63
2021/12/07 09:05:38;;;;;;;1.67;1.55;;;;;;;;;;5028420;28;20125;-64
2021/12/07 09:08:08;;;;;;;3.65;1.40;;;;;;;;;;5027219;28;22354;-64
2021/12/07 09:10:36;;;;;;;5.32;1.90;;;;;;;;;;5027200;28;20670;-65
2021/12/07 09:13:05;;;;;;;2.60;1.58;;;;;;;;;;5024813;28;20096;-64
2021/12/07 09:15:34;;;;;;;3.30;1.90;;;;;;;;;;5031083;28;20068;-64
2021/12/07 09:18:03;;;;;;;3.10;1.52;;;;;;;;;;5022462;28;20064;-64
2021/12/07 09:20:32;;;;;;;5.03;1.52;;;;;;;;;;5027126;28;20041;-65
2021/12/07 09:23:01;;;;;;;2.33;1.40;;;;;;;;;;5035381;28;20111;-64
2021/12/07 09:25:31;;;;;;;8.38;1.90;;;;;;;;;;5048015;28;20041;-64
2021/12/07 09:28:00;;;;;;;3.42;1.88;;;;;;;;;;5047596;28;20110;-65
2021/12/07 09:30:33;;;;;;;2.53;1.67;;;;;;;;;;5039626;28;20485;-65
2021/12/07 09:33:07;;;;;;;3.08;1.50;;;;;;;;;;5021502;28;20047;-64
2021/12/07 09:35:38;;;;;;;;;;;;;;;;;;5032993;28;20568;-64
2021/12/07 09:38:07;;;;;;;2.97;1.60;;;;;;;;;;5034204;28;19924;-64
2021/12/07 09:40:37;;;;;;;3.17;1.77;;;;;;;;;;5033467;28;20045;-64
2021/12/07 09:43:08;;;;;;;3.08;1.77;;;;;;;;;;5030512;28;20057;-64
2021/12/07 09:45:37;;;;;;;4.53;1.98;;;;;;;;;;5031295;28;20053;-64
2021/12/07 09:48:08;;;;;;;7.63;2.10;;;;;;;;;;5033691;28;20081;-64
2021/12/07 09:50:38;;;;;;;7.38;1.83;;;;;;;;;;5034225;28;20060;-64
2021/12/07 09:53:07;;;;;;;5.38;1.77;;;;;;;;;;5031745;28;20497;-64
2021/12/07 09:55:38;;;;;;;4.15;1.65;;;;;;;;;;5031392;28;20045;-64
2021/12/07 09:58:08;;;;;;;2.05;1.38;;;;;;;;;;5028103;28;20100;-64
2021/12/07 10:00:37;;;;;;;2.03;1.42;;;;;;;;;;5032126;28;20049;-64
2021/12/07 10:03:06;;;;;;;7.13;1.80;;;;;;;;;;5050284;28;20045;-64
2021/12/07 10:05:36;;;;;;;2.38;1.30;;;;;;;;;;5051139;28;20405;-65
2021/12/07 10:08:06;;;;;;;3.20;1.50;;;;;;;;;;5053227;28;20041;-64
2021/12/07 10:10:36;;;;;;;2.47;1.75;;;;;;;;;;5050833;28;20083;-64
2021/12/07 10:13:06;;;;;;;1.75;1.30;;;;;;;;;;5048604;28;20049;-64
2021/12/07 10:15:35;;;;;;;2.00;1.45;;;;;;;;;;5049321;28;20995;-64
2021/12/07 10:18:06;;;;;;;3.85;1.50;;;;;;;;;;5047929;28;20048;-64
2021/12/07 10:20:48;;;;;;;2.75;1.88;;;;;;;;;;5049113;28;20084;-64
2021/12/07 10:23:27;;;;;;;2.63;1.75;;;;;;;;;;5052107;28;20139;-64
2021/12/07 10:25:58;;;;;;;4.95;1.50;;;;;;;;;;5052089;28;20141;-64
2021/12/07 10:28:30;;;;;;;2.97;1.60;;;;;;;;;;5051130;28;20400;-64
2021/12/07 10:31:06;;;;;;;2.83;1.42;;;;;;;;;;5049567;28;20056;-65
2021/12/07 10:33:36;;;;;;;4.00;1.60;;;;;;;;;;5052671;28;20041;-64
2021/12/07 10:36:09;;;;;;;2.72;1.65;;;;;;;;;;5051299;28;20059;-65
2021/12/07 10:38:38;;;;;;;6.07;1.60;;;;;;;;;;5047866;28;20048;-65
2021/12/07 10:41:08;;;;;;;4.78;1.60;;;;;;;;;;5048931;28;20158;-65
2021/12/07 10:43:55;;;;;;;3.33;1.55;;;;;;;;;;5048008;28;20514;-65
2021/12/07 10:46:34;;;;;;;4.10;1.40;;;;;;;;;;5050876;28;20095;-65
2021/12/07 10:49:27;;;;;;;2.58;1.50;;;;;;;;;;5051048;28;20044;-65
2021/12/07 10:52:01;;;;;;;4.25;1.75;;;;;;;;;;5027802;28;20391;-65
2021/12/07 10:54:30;;;;;;;2.40;1.63;;;;;;;;;;5053821;28;20045;-65
2021/12/07 10:57:02;;;;;;;4.93;1.52;;;;;;;;;;5054479;28;21699;-65
2021/12/07 10:59:33;;;;;;;2.92;1.45;;;;;;;;;;5056922;28;20045;-65
2021/12/07 11:02:11;;;;;;;3.03;1.58;;;;;;;;;;5045676;28;20049;-65
2021/12/07 11:04:41;;;;;;;2.05;1.55;;;;;;;;;;5049728;28;20599;-64
2021/12/07 11:07:12;;;;;;;2.97;1.60;;;;;;;;;;5048848;28;20145;-64
2021/12/07 11:09:51;;;;;;;6.07;1.50;;;;;;;;;;5048031;28;20056;-65
2021/12/07 11:12:21;;;;;;;2.22;1.38;;;;;;;;;;5052438;28;20393;-65
2021/12/07 11:14:53;;;;;;;3.78;1.73;;;;;;;;;;5054381;28;20654;-65
2021/12/07 11:17:22;;;;;;;3.05;1.60;;;;;;;;;;5050262;28;20139;-65
2021/12/07 11:19:52;;;;;;;6.03;1.50;;;;;;;;;;5050460;28;20048;-65
2021/12/07 11:22:22;;;;;;;3.33;1.45;;;;;;;;;;5051988;28;20059;-64
2021/12/07 11:24:51;;;;;;;2.35;1.45;;;;;;;;;;5055175;28;20045;-64
2021/12/07 11:30:11;;;;;;;3.78;1.73;;;;;;;;;;5054569;28;20554;-65
2021/12/07 11:32:44;;;;;;;2.03;1.30;;;;;;;;;;5041929;28;20142;-64
2021/12/07 11:35:15;;;;;;;3.70;1.67;;;;;;;;;;5043766;28;20128;-64
2021/12/07 11:37:44;;;;;;;4.90;1.42;;;;;;;;;;5045916;28;20138;-65
2021/12/07 11:40:13;;;;;;;8.45;1.90;;;;;;;;;;5048567;28;20045;-64
2021/12/07 11:42:43;;;;;;;4.45;1.65;;;;;;;;;;5043463;28;20128;-65
2021/12/07 11:45:16;;;;;;;1.65;1.17;;;;;;;;;;5040753;28;20080;-64
2021/12/07 11:47:46;;;;;;;2.17;1.08;;;;;;;;;;5040457;28;20084;-64
2021/12/07 11:50:17;;;;;;;3.13;1.40;;;;;;;;;;5036289;28;20442;-64
2021/12/07 11:52:46;;;;;;;2.35;1.20;;;;;;;;;;5059454;28;20049;-64
2021/12/07 11:55:16;;;;;;;3.83;1.48;;;;;;;;;;5050363;28;20084;-65
2021/12/07 11:57:46;;;;;;;4.82;1.60;;;;;;;;;;5059309;28;20483;-65
2021/12/07 12:00:19;;;;;;;4.70;1.75;;;;;;;;;;5059990;28;21236;-65
2021/12/07 12:02:48;;;;;;;3.97;1.50;;;;;;;;;;5059778;28;20044;-65
2021/12/07 12:05:17;;;;;;;2.53;1.20;;;;;;;;;;5060454;28;20047;-65
2021/12/07 12:07:47;;;;;;;2.28;0.95;;;;;;;;;;5053775;28;20047;-65
2021/12/07 12:10:18;;;;;;;2.63;1.38;;;;;;;;;;5060280;28;20055;-65
2021/12/07 12:13:05;;;;;;;9.20;1.30;;;;;;;;;;5053273;28;20080;-64
2021/12/07 12:15:55;;;;;;;3.00;1.27;;;;;;;;;;5054348;28;20118;-65
2021/12/07 12:18:30;;;;;;;5.55;1.20;;;;;;;;;;5050093;28;20480;-65
2021/12/07 12:21:05;;;;;;;3.05;1.35;;;;;;;;;;5049154;28;20071;-65
2021/12/07 12:23:40;;;;;;;2.75;1.20;;;;;;;;;;5056313;28;20095;-65
2021/12/07 12:26:12;;;;;;;8.98;1.15;;;;;;;;;;5056362;28;20055;-65
2021/12/07 12:28:43;;;;;;;4.50;1.17;;;;;;;;;;5056137;28;20036;-65
2021/12/07 12:31:12;;;;;;;3.17;1.63;;;;;;;;;;5055068;28;20041;-65
2021/12/07 12:33:50;;;;;;;2.25;1.20;;;;;;;;;;5055815;28;20460;-64
2021/12/07 12:36:19;;;;;;;3.75;1.42;;;;;;;;;;5058159;28;20079;-64
2021/12/07 12:38:49;;;;;;;2.45;1.00;;;;;;;;;;5060336;28;20044;-64
2021/12/07 12:41:18;;;;;;;1.73;1.13;;;;;;;;;;5056892;28;20044;-64
2021/12/07 12:43:51;;;;;;;3.08;1.23;;;;;;;;;;5060440;28;20080;-64
2021/12/07 12:46:20;;;;;;;2.60;1.63;;;;;;;;;;5062922;28;20048;-65
2021/12/07 12:48:51;;;;;;;3.85;1.38;;;;;;;;;;5059820;28;20075;-64
2021/12/07 12:51:25;;;;;;;2.58;1.20;;;;;;;;;;5051013;28;20052;-65
2021/12/07 12:53:55;;;;;;;9.90;1.65;;;;;;;;;;5057185;28;20452;-64
2021/12/07 12:56:25;;;;;;;3.47;1.30;;;;;;;;;;5054799;28;20048;-64
2021/12/07 12:58:54;;;;;;;4.22;1.10;;;;;;;;;;5057850;28;20389;-64
2021/12/07 13:01:25;;;;;;;3.83;1.50;;;;;;;;;;5048778;28;20060;-64
2021/12/07 13:04:07;;;;;;;2.92;0.95;;;;;;;;;;5053748;28;20709;-64
2021/12/07 13:07:02;;;;;;;3.28;1.17;;;;;;;;;;5053317;28;20508;-64
2021/12/07 13:09:35;;;;;;;2.03;1.30;;;;;;;;;;5052983;28;20044;-64
2021/12/07 13:12:05;;;;;;;3.08;1.20;;;;;;;;;;5060586;28;20068;-64
2021/12/07 13:14:36;;;;;;;5.97;1.40;;;;;;;;;;5056795;28;20044;-64
2021/12/07 13:17:06;;;;;;;4.28;1.30;;;;;;;;;;5058539;28;20130;-64
2021/12/07 13:19:50;;;;;;;4.53;1.10;;;;;;;;;;5054699;28;20041;-62
2021/12/07 13:22:21;;;;;;;5.40;1.45;;;;;;;;;;5052931;28;20049;-63
2021/12/07 13:24:55;;;;;;;3.17;1.40;;;;;;;;;;5058846;28;20135;-63
2021/12/07 13:27:23;;;;;;;4.60;1.80;;;;;;;;;;5059874;28;20055;-63
2021/12/07 13:29:53;;;;;;;5.70;1.67;;;;;;;;;;5064028;28;20130;-63
2021/12/07 13:32:22;;;;;;;5.18;1.20;;;;;;;;;;5062354;28;20049;-63
2021/12/07 13:35:02;;;;;;;4.38;1.08;;;;;;;;;;5059883;28;20048;-63
2021/12/07 13:37:48;;;;;;;4.95;1.27;;;;;;;;;;5052095;28;20033;-63
2021/12/07 13:40:20;;;;;;;3.75;1.13;;;;;;;;;;5055889;28;20041;-63
2021/12/07 13:42:51;;;;;;;3.58;1.05;;;;;;;;;;5060347;28;20045;-63
2021/12/07 13:45:20;;;;;;;4.45;1.30;;;;;;;;;;5060653;28;20897;-63
2021/12/07 13:47:49;;;;;;;6.63;1.38;;;;;;;;;;5073218;28;20055;-63
2021/12/07 13:50:19;;;;;;;3.08;1.25;;;;;;;;;;5076138;28;20045;-63
2021/12/07 13:52:52;;;;;;;2.40;1.20;;;;;;;;;;5064365;28;20063;-63
2021/12/07 13:55:22;;;;;;;2.70;1.13;;;;;;;;;;5073012;28;20040;-63
2021/12/07 13:57:52;;;;;;;4.95;1.00;;;;;;;;;;5066337;28;20755;-63
2021/12/07 14:00:23;;;;;;;1.67;1.00;;;;;;;;;;5058067;28;20059;-63
2021/12/07 14:02:55;;;;;;;2.95;1.30;;;;;;;;;;5052992;28;20060;-63
2021/12/07 14:05:24;;;;;;;4.10;1.20;;;;;;;;;;5054315;28;20137;-63
2021/12/07 14:07:55;;;;;;;3.47;0.95;;;;;;;;;;5054786;28;20136;-62
2021/12/07 14:10:24;;;;;;;2.63;1.20;;;;;;;;;;5069110;28;20136;-63
2021/12/07 14:12:54;;;;;;;8.40;1.60;;;;;;;;;;5061180;28;20053;-63
2021/12/07 14:15:25;;;;;;;6.55;1.45;;;;;;;;;;5063093;28;20056;-63
2021/12/07 14:17:55;;;;;;;2.03;0.93;;;;;;;;;;5062226;28;20124;-63
2021/12/07 14:20:31;;;;;;;3.33;1.20;;;;;;;;;;5056589;28;20462;-63
2021/12/07 14:23:02;;;;;;;1.73;0.90;;;;;;;;;;5030157;28;20052;-63
2021/12/07 14:25:30;;;;;;;1.40;0.98;;;;;;;;;;5057207;28;20036;-63
2021/12/07 14:27:59;;;;;;;1.73;0.93;;;;;;;;;;5057486;28;20060;-63
2021/12/07 14:30:29;;;;;;;4.00;1.13;;;;;;;;;;5049686;28;20051;-64
2021/12/07 14:32:58;;;;;;;4.47;1.33;;;;;;;;;;5052636;28;20467;-63
2021/12/07 14:35:27;;;;;;;5.65;1.38;;;;;;;;;;5053934;28;20055;-63
2021/12/07 14:37:56;;;;;;;2.53;1.13;;;;;;;;;;5057501;28;20484;-63
2021/12/07 14:40:26;;;;;;;4.55;1.25;;;;;;;;;;5055772;28;20072;-63
2021/12/07 14:43:10;;;;;;;7.47;1.25;;;;;;;;;;5021623;28;20489;-63
2021/12/07 14:45:39;;;;;;;2.30;0.90;;;;;;;;;;5057948;28;20040;-63
2021/12/07 14:48:08;;;;;;;3.83;1.10;;;;;;;;;;5052144;28;20135;-63
2021/12/07 14:50:44;;;;;;;4.15;1.25;;;;;;;;;;5045215;28;20080;-63
2021/12/07 14:53:12;;;;;;;4.10;1.60;;;;;;;;;;5052784;28;20052;-63
2021/12/07 14:55:42;;;;;;;2.25;1.17;;;;;;;;;;5050015;28;20560;-63
2021/12/07 14:58:11;;;;;;;3.28;0.93;;;;;;;;;;5057140;28;20044;-63
2021/12/07 15:00:39;;;;;;;2.65;0.95;;;;;;;;;;5053831;28;20458;-63
2021/12/07 15:03:09;;;;;;;3.50;1.10;;;;;;;;;;5057526;28;20101;-63
2021/12/07 15:05:37;;;;;;;1.63;1.08;;;;;;;;;;5058255;28;20055;-63
2021/12/07 15:08:06;;;;;;;4.05;1.45;;;;;;;;;;5054265;28;20052;-63
2021/12/07 15:10:35;;;;;;;9.40;1.33;;;;;;;;;;5059178;28;20052;-63
2021/12/07 15:13:10;;;;;;;2.53;1.35;;;;;;;;;;5054884;28;20055;-63
2021/12/07 15:15:41;;;;;;;3.95;1.40;;;;;;;;;;5047771;28;20080;-63
2021/12/07 15:18:13;;;;;;;2.13;1.20;;;;;;;;;;5057231;28;20052;-63
2021/12/07 15:20:42;;;;;;;1.75;1.10;;;;;;;;;;5048431;28;20052;-63
2021/12/07 15:23:10;;;;;;;2.72;1.55;;;;;;;;;;5050959;28;20085;-63
2021/12/07 15:25:40;;;;;;;3.13;0.90;;;;;;;;;;5052790;28;20044;-63
2021/12/07 15:28:14;;;;;;;3.70;1.17;;;;;;;;;;5054701;28;20060;-63
2021/12/07 15:30:43;;;;;;;4.05;1.52;;;;;;;;;;5058338;28;20559;-63
2021/12/07 15:33:12;;;;;;;4.28;1.33;;;;;;;;;;5056379;28;20045;-63
2021/12/07 15:35:44;;;;;;;2.47;1.10;;;;;;;;;;5052002;28;20552;-63
2021/12/07 15:38:16;;;;;;;2.85;1.00;;;;;;;;;;5054429;28;20044;-63
2021/12/07 15:40:45;;;;;;;2.65;1.50;;;;;;;;;;5049911;28;20450;-63
2021/12/07 15:43:16;;;;;;;1.45;0.93;;;;;;;;;;5055369;28;20421;-63
2021/12/07 15:45:47;;;;;;;4.93;1.15;;;;;;;;;;5055799;28;20053;-63
2021/12/07 15:48:16;;;;;;;7.05;1.70;;;;;;;;;;5059027;28;20050;-63
2021/12/07 15:50:44;;;;;;;4.75;1.10;;;;;;;;;;5055528;28;20063;-63
2021/12/07 15:53:14;;;;;;;5.72;1.00;;;;;;;;;;5067536;28;20803;-63
2021/12/07 15:55:44;;;;;;;6.47;1.15;;;;;;;;;;5055437;28;20056;-63
2021/12/07 15:58:20;;;;;;;5.13;1.00;;;;;;;;;;5056529;28;20045;-63
2021/12/07 16:00:51;;;;;;;1.85;1.08;;;;;;;;;;5063492;28;20829;-63
2021/12/07 16:03:21;;;;;;;3.35;1.15;;;;;;;;;;5070016;28;20131;-63
2021/12/07 16:05:51;;;;;;;2.88;1.17;;;;;;;;;;5058667;28;20087;-63
2021/12/07 16:08:21;;;;;;;1.58;0.90;;;;;;;;;;5058514;28;20052;-64
2021/12/07 16:10:51;;;;;;;8.55;1.27;;;;;;;;;;5048134;28;20076;-64
2021/12/07 16:13:26;;;;;;;7.18;1.23;;;;;;;;;;5053368;28;20072;-63
2021/12/07 16:15:56;;;;;;;4.40;1.08;;;;;;;;;;5048297;28;20063;-64
2021/12/07 16:18:26;;;;;;;2.67;1.00;;;;;;;;;;5050033;28;20139;-63
2021/12/07 16:20:58;;;;;;;1.92;1.08;;;;;;;;;;5053722;28;20777;-64
2021/12/07 16:23:28;;;;;;;3.10;1.27;;;;;;;;;;5058236;28;20055;-63
2021/12/07 16:25:57;;;;;;;5.40;1.08;;;;;;;;;;5059771;28;20053;-63
2021/12/07 16:28:39;;;;;;;5.20;1.38;;;;;;;;;;5056747;28;20114;-63